Guymon Municipal Airport
KGUY : now visible

Aeroporto :











RITROVATECI SU...

 
LOGIN :

Iscrizione | Disclaimer

   EN    FR    IT 

 









Sommario :    VFR   VFR Marginale   IFR   IFR Intensivo   IFR Molto Intensivo
Visibilità : 
Base nubi : 
>= 8 km
>= 3000ft
5 / 8 km
1000 / 3000 ft
1500m / 5 km
500 / 1000 ft
800 / 1500m
200 / 500 ft
< 800m
< 200 ft
Simboli :   Temporali  Nebbia  Neve Forte  Precipitazioni Forti  Vento > 20 kt







- Altitudine del aeroporto : 3123 ft


KGUY - Guymon Municipal

ULTIMO METAR :
  • 201553Z AUTO 23025G31KT 10SM CLR 36/14 A3003 RMK AO2 PK WND 23031/1552 SLP109 T03560139

METARs OBSOLETI :
  • 201453Z AUTO 23018G29KT 10SM CLR 32/14 A3004 RMK AO2 PK WND 23029/1448 SLP118 T03170139 50005
  • 201353Z AUTO 21009KT 10SM CLR 28/16 A3005 RMK AO2 SLP121 T02780161

TAF KGUY
Valido dal 20 a 12 ore il 21 a 12 ore UTC


201139Z 2012/2112 20013KT P6SM SCT150
FM201500 20016G25KT P6SM FEW150
FM210200 17013KT P6SM SCT150
Nessun NOTAM noto per questo aeroporto.



MetMap, La meteo Aeronautica in un colpo d'occhio ! - Copyright ORBIFLY Dicembre 2007 - Disclaimer

ORBIFLY MET'MAP TEAM :

Programmazione e sviluppo : Alexandra Zaïnal
Concezione e sviluppo : Baudouin d'Aumeries
Co-Programmazione e sviluppo : Marc-Olivier Méhu
Supporto tecnico e logistico : Manuel Goepfert
Aiuto per la traduzione : Arnaldo La Scala

Contatto : metmap@orbifly.com




FONTI E CREDITI :

   NOAA       Earth
Advisory